createdAt,value
2019-06-07T00:00:32.159Z,101136.39
2019-06-07T00:01:20.964Z,101136.48
2019-06-07T00:02:27.716Z,101133.91
2019-06-07T00:03:36.042Z,101127.97
2019-06-07T00:04:42.945Z,101129.34
2019-06-07T00:05:50.917Z,101128.67
2019-06-07T00:06:57.711Z,101127.88
2019-06-07T00:08:10.788Z,101130.41
2019-06-07T00:09:15.315Z,101124.47
2019-06-07T00:10:36.104Z,101130.95
2019-06-07T00:11:32.466Z,101128.50
2019-06-07T00:12:41.129Z,101123.34
2019-06-07T00:13:48.526Z,101135.06
2019-06-07T00:14:56.526Z,101119.16
2019-06-07T00:16:03.695Z,101119.16
2019-06-07T00:17:14.093Z,101123.34
2019-06-07T00:18:25.662Z,101122.94
2019-06-07T00:19:29.252Z,101125.47
2019-06-07T00:20:36.267Z,101118.61
2019-06-07T00:22:52.614Z,101115.13
2019-06-07T00:24:00.489Z,101118.03
2019-06-07T00:25:12.402Z,101115.91
2019-06-07T00:26:21.364Z,101114.70
2019-06-07T00:27:27.198Z,101112.59
2019-06-07T00:28:34.983Z,101111.88
2019-06-07T00:29:41.829Z,101111.84
2019-06-07T00:30:52.291Z,101109.77
2019-06-07T00:31:58.161Z,101114.80
2019-06-07T00:33:06.055Z,101112.63
2019-06-07T00:34:14.038Z,101119.07
2019-06-07T00:35:22.577Z,101114.16
2019-06-07T00:36:29.865Z,101107.81
2019-06-07T00:37:37.522Z,101107.02
2019-06-07T00:38:44.929Z,101114.38
2019-06-07T00:40:12.886Z,101113.23
2019-06-07T00:41:00.940Z,101114.61
2019-06-07T00:42:10.439Z,101110.03
2019-06-07T00:43:25.247Z,101110.94
2019-06-07T00:44:27.433Z,101115.34
2019-06-07T00:45:34.351Z,101113.14
2019-06-07T00:46:41.991Z,101114.58
2019-06-07T00:47:49.152Z,101112.39
2019-06-07T00:48:56.675Z,101107.70
2019-06-07T00:50:03.484Z,101107.85
2019-06-07T00:51:11.562Z,101104.78
2019-06-07T00:53:10.707Z,101103.88
2019-06-07T00:53:32.119Z,101105.31
2019-06-07T00:54:36.625Z,101095.97
2019-06-07T00:55:44.191Z,101102.56
2019-06-07T00:56:51.264Z,101096.09
2019-06-07T00:57:58.859Z,101099.75
2019-06-07T00:59:11.310Z,101105.27
2019-06-07T01:00:21.443Z,101105.66
2019-06-07T01:01:25.511Z,101103.88
2019-06-07T01:02:33.669Z,101109.55
2019-06-07T01:03:40.825Z,101103.98
2019-06-07T01:04:48.371Z,101103.54
2019-06-07T01:05:55.541Z,101097.19
2019-06-07T01:07:03.098Z,101098.88
2019-06-07T01:08:10.262Z,101098.39
2019-06-07T01:09:20.272Z,101098.02
2019-06-07T01:10:51.629Z,101098.43
2019-06-07T01:11:36.313Z,101096.52
2019-06-07T01:12:43.696Z,101097.50
2019-06-07T01:13:51.685Z,101090.56
2019-06-07T01:14:58.519Z,101097.76
2019-06-07T01:16:06.215Z,101091.36
2019-06-07T01:17:39.664Z,101091.36
2019-06-07T01:18:41.061Z,101093.59
2019-06-07T01:19:44.586Z,101091.06
2019-06-07T01:20:52.504Z,101088.03
2019-06-07T01:21:59.503Z,101091.59
2019-06-07T01:23:51.832Z,101089.44
2019-06-07T01:24:15.550Z,101091.59
2019-06-07T01:25:26.095Z,101091.97
2019-06-07T01:26:31.539Z,101091.97
2019-06-07T01:27:39.474Z,101088.64
2019-06-07T01:28:46.222Z,101092.13
2019-06-07T01:29:53.796Z,101085.27
2019-06-07T01:31:00.561Z,101087.09
2019-06-07T01:32:08.140Z,101086.27
2019-06-07T01:33:15.906Z,101079.80
2019-06-07T01:34:26.596Z,101082.29
2019-06-07T01:35:32.285Z,101079.38
2019-06-07T01:36:39.869Z,101077.41
2019-06-07T01:37:46.965Z,101080.44
2019-06-07T01:38:54.960Z,101080.97
2019-06-07T01:40:02.151Z,101074.95
2019-06-07T01:41:10.141Z,101074.65
2019-06-07T01:42:18.161Z,101071.73
2019-06-07T01:43:28.458Z,101073.14
2019-06-07T01:44:35.074Z,101070.26
2019-06-07T01:45:43.064Z,101080.28
2019-06-07T01:46:50.256Z,101071.70
2019-06-07T01:47:58.328Z,101069.05
2019-06-07T01:49:05.737Z,101067.84
2019-06-07T01:50:13.957Z,101062.36
2019-06-07T01:51:22.014Z,101063.26
2019-06-07T01:52:30.139Z,101059.75
2019-06-07T01:53:37.206Z,101056.08
2019-06-07T01:54:58.610Z,101053.13
2019-06-07T01:55:53.944Z,101048.13
2019-06-07T01:57:01.691Z,101052.48
2019-06-07T01:58:08.870Z,101049.98
2019-06-07T01:59:17.775Z,101053.80
2019-06-07T02:00:26.595Z,101050.47
2019-06-07T02:01:35.529Z,101050.84
2019-06-07T02:02:42.914Z,101050.09
2019-06-07T02:03:50.857Z,101046.75
2019-06-07T02:04:57.776Z,101049.99
2019-06-07T02:06:05.976Z,101045.69
2019-06-07T02:07:13.081Z,101049.58
2019-06-07T02:08:22.225Z,101044.92
2019-06-07T02:09:31.741Z,101043.30
2019-06-07T02:10:38.633Z,101049.23
2019-06-07T02:11:45.736Z,101048.74
2019-06-07T02:12:53.707Z,101049.50
2019-06-07T02:14:00.481Z,101049.02
2019-06-07T02:15:10.056Z,101044.33
2019-06-07T02:16:17.537Z,101050.30
2019-06-07T02:17:26.744Z,101046.03
2019-06-07T02:18:35.057Z,101051.52
2019-06-07T02:19:42.795Z,101051.13
2019-06-07T02:20:49.592Z,101051.13
2019-06-07T02:21:57.595Z,101052.80
2019-06-07T02:23:05.008Z,101050.13
2019-06-07T02:24:12.585Z,101050.58
2019-06-07T02:25:42.544Z,101045.81
2019-06-07T02:26:32.169Z,101042.27
2019-06-07T02:27:37.398Z,101046.16
2019-06-07T02:28:45.823Z,101037.34
2019-06-07T02:29:53.433Z,101043.11
2019-06-07T02:31:01.085Z,101038.22
2019-06-07T02:32:08.017Z,101038.27
2019-06-07T02:33:15.883Z,101038.81
2019-06-07T02:34:24.893Z,101034.20
2019-06-07T02:35:39.524Z,101038.16
2019-06-07T02:36:41.873Z,101033.44
2019-06-07T02:37:49.583Z,101039.95
2019-06-07T02:38:57.306Z,101040.59
2019-06-07T02:40:05.525Z,101035.52
2019-06-07T02:41:12.897Z,101041.17
2019-06-07T02:42:25.224Z,101041.59
2019-06-07T02:43:34.405Z,101037.32
2019-06-07T02:44:40.206Z,101033.99
2019-06-07T02:45:47.381Z,101033.92
2019-06-07T02:46:54.982Z,101033.95
2019-06-07T02:48:01.808Z,101032.25
2019-06-07T02:49:09.381Z,101029.75
2019-06-07T02:50:18.781Z,101030.59
2019-06-07T02:51:28.051Z,101025.17
2019-06-07T02:52:40.313Z,101018.75
2019-06-07T02:53:44.905Z,101024.75
2019-06-07T02:54:51.728Z,101024.06
2019-06-07T02:56:35.285Z,101022.48
2019-06-07T02:57:08.595Z,101018.64
2019-06-07T02:58:16.590Z,101019.99
2019-06-07T02:59:47.225Z,101022.24
2019-06-07T03:01:06.650Z,101027.66
2019-06-07T03:02:00.332Z,101020.95
2019-06-07T03:03:08.140Z,101020.55
2019-06-07T03:04:17.027Z,101024.33
2019-06-07T03:05:25.215Z,101019.99
2019-06-07T03:06:39.540Z,101021.66
2019-06-07T03:07:47.803Z,101022.11
2019-06-07T03:08:56.160Z,101023.78
2019-06-07T03:10:05.213Z,101024.13
2019-06-07T03:11:14.616Z,101020.20
2019-06-07T03:12:26.570Z,101023.13
2019-06-07T03:13:40.815Z,101021.42
2019-06-07T03:14:51.500Z,101021.42
2019-06-07T03:15:59.940Z,101020.23
2019-06-07T03:17:20.095Z,101019.23
2019-06-07T03:18:51.631Z,101017.16
2019-06-07T03:20:01.790Z,101011.28
2019-06-07T03:21:13.149Z,101014.38
2019-06-07T03:22:20.026Z,101015.30
2019-06-07T03:23:32.356Z,101018.26
2019-06-07T03:24:42.117Z,101020.34
2019-06-07T03:25:52.857Z,101022.88
2019-06-07T03:28:09.878Z,101023.78
2019-06-07T03:29:17.141Z,101022.01
2019-06-07T03:30:59.683Z,101024.61
2019-06-07T03:31:45.357Z,101030.96
2019-06-07T03:32:47.283Z,101023.58
2019-06-07T03:33:53.421Z,101026.94
2019-06-07T03:35:00.978Z,101028.16
2019-06-07T03:36:23.535Z,101033.61
2019-06-07T03:37:18.183Z,101028.85
2019-06-07T03:38:24.943Z,101034.72
2019-06-07T03:39:33.711Z,101031.22
2019-06-07T03:40:41.371Z,101031.56
2019-06-07T03:42:05.068Z,101027.19
2019-06-07T03:42:58.482Z,101030.55
2019-06-07T03:44:06.997Z,101023.33
2019-06-07T03:45:14.085Z,101030.17
2019-06-07T03:46:22.069Z,101026.35
2019-06-07T03:47:31.942Z,101032.81
2019-06-07T03:48:40.724Z,101027.15
2019-06-07T03:49:46.941Z,101028.81
2019-06-07T03:51:04.068Z,101026.31
2019-06-07T03:52:03.808Z,101030.63
2019-06-07T03:53:11.702Z,101027.19
2019-06-07T03:54:18.452Z,101032.33
2019-06-07T03:55:27.811Z,101036.59
2019-06-07T03:56:36.051Z,101032.81
2019-06-07T03:58:29.953Z,101038.84
2019-06-07T03:58:53.640Z,101038.50
2019-06-07T04:00:01.180Z,101044.34
2019-06-07T04:01:08.175Z,101037.53
2019-06-07T04:02:15.724Z,101040.55
2019-06-07T04:03:33.318Z,101040.55
2019-06-07T04:04:32.566Z,101041.24
2019-06-07T04:05:43.627Z,101044.05
2019-06-07T04:06:50.560Z,101047.38
2019-06-07T04:07:57.665Z,101046.86
2019-06-07T04:09:06.958Z,101045.33
2019-06-07T04:10:15.125Z,101039.13
2019-06-07T04:11:22.667Z,101041.83
2019-06-07T04:12:31.855Z,101044.66
2019-06-07T04:13:42.709Z,101041.83
2019-06-07T04:14:48.102Z,101046.28
2019-06-07T04:15:55.982Z,101042.07
2019-06-07T04:17:02.775Z,101042.97
2019-06-07T04:18:10.427Z,101039.66
2019-06-07T04:19:17.540Z,101042.23
2019-06-07T04:20:25.097Z,101044.11
2019-06-07T04:21:34.350Z,101043.98
2019-06-07T04:22:42.721Z,101045.93
2019-06-07T04:23:49.554Z,101042.69
2019-06-07T04:24:57.940Z,101049.78
2019-06-07T04:26:04.805Z,101044.88
2019-06-07T04:27:12.924Z,101048.70
2019-06-07T04:28:20.003Z,101047.08
2019-06-07T04:29:33.997Z,101038.81
2019-06-07T04:30:44.446Z,101039.42
2019-06-07T04:31:52.042Z,101034.52
2019-06-07T04:32:58.804Z,101037.68
2019-06-07T04:34:06.577Z,101034.52
2019-06-07T04:35:13.927Z,101035.12
2019-06-07T04:36:41.893Z,101037.15
2019-06-07T04:37:38.015Z,101032.73
2019-06-07T04:38:45.273Z,101033.47
2019-06-07T04:39:54.117Z,101025.45
2019-06-07T04:41:02.608Z,101023.34
2019-06-07T04:42:10.775Z,101033.47
2019-06-07T04:43:18.794Z,101030.20
2019-06-07T04:44:27.029Z,101035.41
2019-06-07T04:45:45.775Z,101036.09
2019-06-07T04:46:48.764Z,101036.73
2019-06-07T04:47:58.407Z,101033.30
2019-06-07T04:49:06.474Z,101041.17
2019-06-07T04:50:14.956Z,101046.83
2019-06-07T04:51:26.087Z,101039.44
2019-06-07T04:52:39.892Z,101048.59
2019-06-07T04:53:43.276Z,101046.48
2019-06-07T04:54:51.339Z,101046.72
2019-06-07T04:55:58.608Z,101040.61
2019-06-07T04:57:06.326Z,101041.27
2019-06-07T04:58:13.087Z,101040.39
2019-06-07T05:00:01.102Z,101037.81
2019-06-07T05:00:51.839Z,101034.39
2019-06-07T05:01:43.947Z,101036.25
2019-06-07T05:02:51.128Z,101043.34
2019-06-07T05:03:58.738Z,101036.52
2019-06-07T05:05:07.337Z,101034.59
2019-06-07T05:06:14.898Z,101030.55
2019-06-07T05:07:21.687Z,101030.17
2019-06-07T05:08:31.495Z,101032.86
2019-06-07T05:09:42.609Z,101030.05
2019-06-07T05:10:47.532Z,101026.19
2019-06-07T05:11:54.651Z,101028.17
2019-06-07T05:13:02.205Z,101029.28
2019-06-07T05:14:09.077Z,101026.84
2019-06-07T05:15:17.289Z,101029.41
2019-06-07T05:16:24.018Z,101021.22
2019-06-07T05:17:32.831Z,101020.77
2019-06-07T05:18:43.045Z,101025.64
2019-06-07T05:19:50.420Z,101024.95
2019-06-07T05:20:59.205Z,101019.06
2019-06-07T05:22:07.483Z,101018.01
2019-06-07T05:23:59.374Z,101015.79
2019-06-07T05:24:23.720Z,101021.22
2019-06-07T05:25:33.270Z,101012.20
2019-06-07T05:26:42.683Z,101016.02
2019-06-07T05:27:48.955Z,101011.64
2019-06-07T05:28:56.570Z,101010.26
2019-06-07T05:30:13.537Z,101008.97
2019-06-07T05:31:13.889Z,101006.21
2019-06-07T05:32:20.840Z,101004.64
2019-06-07T05:33:28.357Z,101001.13
2019-06-07T05:34:37.014Z,101001.35
2019-06-07T05:35:44.621Z,100999.88
2019-06-07T05:37:10.669Z,100996.27
2019-06-07T05:38:00.629Z,100999.27
2019-06-07T05:39:09.396Z,100998.59
2019-06-07T05:40:24.967Z,100990.13
2019-06-07T05:41:32.698Z,100987.62
2019-06-07T05:42:46.020Z,100987.95
2019-06-07T05:44:11.317Z,100984.19
2019-06-07T05:44:59.293Z,100980.16
2019-06-07T05:46:06.459Z,100982.34
2019-06-07T05:47:14.024Z,100983.45
2019-06-07T05:48:20.857Z,100981.80
2019-06-07T05:49:28.515Z,100981.33
2019-06-07T05:50:44.975Z,100978.05
2019-06-07T05:51:45.217Z,100968.78
2019-06-07T05:52:52.400Z,100965.02
2019-06-07T05:53:59.939Z,100972.47
2019-06-07T05:55:07.021Z,100966.44
2019-06-07T05:56:15.583Z,100966.95
2019-06-07T05:57:23.203Z,100973.13
2019-06-07T05:58:31.123Z,100967.30
2019-06-07T05:59:41.124Z,100973.17
2019-06-07T06:00:47.900Z,100969.30
2019-06-07T06:02:02.617Z,100971.48
2019-06-07T06:03:06.117Z,100968.44
2019-06-07T06:04:13.459Z,100971.23
2019-06-07T06:05:33.418Z,100973.07
2019-06-07T06:06:29.816Z,100963.86
2019-06-07T06:07:41.228Z,100966.13
2019-06-07T06:08:47.924Z,100968.14
2019-06-07T06:09:55.924Z,100975.34
2019-06-07T06:11:02.706Z,100973.83
2019-06-07T06:12:11.053Z,100970.38
2019-06-07T06:13:18.197Z,100969.48
2019-06-07T06:14:26.114Z,100969.75
2019-06-07T06:15:42.077Z,100970.41
2019-06-07T06:16:45.372Z,100974.94
2019-06-07T06:17:53.884Z,100970.23
2019-06-07T06:19:00.070Z,100977.89
2019-06-07T06:20:09.140Z,100975.02
2019-06-07T06:21:19.925Z,100980.50
2019-06-07T06:22:25.968Z,100981.62
2019-06-07T06:23:33.883Z,100978.77
2019-06-07T06:24:48.846Z,100982.20
2019-06-07T06:25:56.503Z,100985.80
2019-06-07T06:27:18.431Z,100980.33
2019-06-07T06:28:12.749Z,100982.86
2019-06-07T06:29:24.148Z,100976.03
2019-06-07T06:30:41.207Z,100972.28
2019-06-07T06:32:35.824Z,100965.84
2019-06-07T06:32:58.931Z,100971.07
2019-06-07T06:34:05.912Z,100966.66
2019-06-07T06:35:14.360Z,100968.23
2019-06-07T06:36:21.942Z,100968.47
2019-06-07T06:37:30.091Z,100964.43
2019-06-07T06:38:38.555Z,100970.77
2019-06-07T06:39:49.885Z,100970.71
2019-06-07T06:41:14.742Z,100964.88
2019-06-07T06:42:06.449Z,100960.64
2019-06-07T06:43:13.983Z,100954.22
2019-06-07T06:44:21.560Z,100959.95
2019-06-07T06:45:28.291Z,100959.03
2019-06-07T06:46:40.981Z,100959.80
2019-06-07T06:47:47.632Z,100957.97
2019-06-07T06:48:55.496Z,100958.17
2019-06-07T06:50:03.543Z,100954.89
2019-06-07T06:51:11.395Z,100956.74
2019-06-07T06:52:18.144Z,100955.38
2019-06-07T06:53:26.025Z,100952.52
2019-06-07T06:54:40.635Z,100949.49
2019-06-07T06:55:43.920Z,100945.34
2019-06-07T06:56:52.780Z,100943.58
2019-06-07T06:58:01.201Z,100949.08
2019-06-07T07:00:18.751Z,100949.89
2019-06-07T07:01:26.020Z,100951.95
2019-06-07T07:02:33.580Z,100951.14
2019-06-07T07:04:00.238Z,100956.77
2019-06-07T07:04:53.478Z,100954.73
2019-06-07T07:06:24.211Z,100956.73
2019-06-07T07:07:09.390Z,100955.52
2019-06-07T07:08:17.009Z,100963.88
2019-06-07T07:09:26.321Z,100953.59
2019-06-07T07:10:43.089Z,100955.97
2019-06-07T07:12:04.255Z,100952.29
2019-06-07T07:12:59.279Z,100952.00
2019-06-07T07:14:07.055Z,100956.80
2019-06-07T07:15:18.603Z,100948.00
2019-06-07T07:16:26.138Z,100952.00
2019-06-07T07:17:50.917Z,100950.62
2019-06-07T07:18:44.119Z,100950.97
2019-06-07T07:19:53.053Z,100949.66
2019-06-07T07:21:00.374Z,100946.83
2019-06-07T07:22:07.253Z,100939.33
2019-06-07T07:23:15.426Z,100943.69
2019-06-07T07:24:22.663Z,100940.84
2019-06-07T07:25:30.513Z,100934.82
2019-06-07T07:26:37.816Z,100941.98
2019-06-07T07:27:47.245Z,100934.66
2019-06-07T07:28:57.440Z,100934.82
2019-06-07T07:30:35.628Z,100937.63
2019-06-07T07:31:11.976Z,100933.73
2019-06-07T07:32:19.841Z,100934.12
2019-06-07T07:34:20.225Z,100935.63
2019-06-07T07:34:37.675Z,100930.02
2019-06-07T07:36:09.589Z,100938.12
2019-06-07T07:36:59.550Z,100938.71
2019-06-07T07:38:02.995Z,100933.88
2019-06-07T07:39:10.716Z,100943.02
2019-06-07T07:41:26.888Z,100936.77
2019-06-07T07:42:33.998Z,100933.30
2019-06-07T07:43:41.778Z,100934.55
2019-06-07T07:44:49.934Z,100936.88
2019-06-07T07:46:02.740Z,100936.37
2019-06-07T07:47:07.126Z,100936.59
2019-06-07T07:48:18.159Z,100934.20
2019-06-07T07:49:23.300Z,100931.28
2019-06-07T07:50:31.320Z,100932.23
2019-06-07T07:51:38.167Z,100934.61
2019-06-07T07:52:48.177Z,100931.49
2019-06-07T07:54:09.066Z,100927.63
2019-06-07T07:55:05.841Z,100924.93
2019-06-07T07:56:12.734Z,100930.27
2019-06-07T07:57:20.648Z,100931.73
2019-06-07T07:58:27.404Z,100922.45
2019-06-07T07:59:44.190Z,100921.42
2019-06-07T08:00:57.271Z,100919.09
2019-06-07T08:01:55.855Z,100915.58
2019-06-07T08:03:04.384Z,100912.81
2019-06-07T08:04:10.828Z,100914.67
2019-06-07T08:05:25.665Z,100910.27
2019-06-07T08:06:27.659Z,100909.33
2019-06-07T08:07:34.414Z,100909.00
2019-06-07T08:08:42.559Z,100903.52
2019-06-07T08:09:51.459Z,100902.11
2019-06-07T08:11:01.785Z,100896.53
2019-06-07T08:12:07.243Z,100899.01
2019-06-07T08:13:24.537Z,100898.64
2019-06-07T08:14:23.693Z,100894.64
2019-06-07T08:15:31.347Z,100889.36
2019-06-07T08:16:38.229Z,100894.42
2019-06-07T08:17:47.255Z,100887.31
2019-06-07T08:18:58.523Z,100880.66
2019-06-07T08:20:03.789Z,100873.70
2019-06-07T08:21:24.512Z,100875.78
2019-06-07T08:22:20.264Z,100869.08
2019-06-07T08:23:27.017Z,100876.97
2019-06-07T08:24:34.577Z,100867.22
2019-06-07T08:25:41.534Z,100868.86
2019-06-07T08:27:15.942Z,100871.00
2019-06-07T08:27:59.008Z,100861.25
2019-06-07T08:29:07.659Z,100858.73
2019-06-07T08:30:47.254Z,100859.56
2019-06-07T08:31:25.783Z,100858.00
2019-06-07T08:32:32.538Z,100851.58
2019-06-07T08:33:40.428Z,100857.82
2019-06-07T08:34:49.827Z,100853.92
2019-06-07T08:36:10.383Z,100851.58
2019-06-07T08:37:05.441Z,100850.37
2019-06-07T08:38:25.837Z,100851.67
2019-06-07T08:39:21.983Z,100852.38
2019-06-07T08:40:29.624Z,100847.67
2019-06-07T08:41:37.041Z,100843.03
2019-06-07T08:43:02.936Z,100848.62
2019-06-07T08:43:55.319Z,100850.84
2019-06-07T08:45:05.443Z,100844.81
2019-06-07T08:46:11.138Z,100846.55
2019-06-07T08:47:20.896Z,100838.95
2019-06-07T08:48:29.995Z,100845.24
2019-06-07T08:49:36.850Z,100845.78
2019-06-07T08:50:44.015Z,100839.36
2019-06-07T08:51:56.622Z,100840.17
2019-06-07T08:53:11.258Z,100837.05
2019-06-07T08:54:22.490Z,100824.47
2019-06-07T08:55:18.953Z,100825.68
2019-06-07T08:56:26.875Z,100818.89
2019-06-07T08:57:33.656Z,100824.77
2019-06-07T08:58:41.845Z,100816.67
2019-06-07T08:59:48.931Z,100816.89
2019-06-07T09:01:03.664Z,100822.45
2019-06-07T09:02:22.542Z,100817.08
2019-06-07T09:03:14.595Z,100821.53
2019-06-07T09:04:21.521Z,100814.98
2019-06-07T09:05:29.608Z,100811.35
2019-06-07T09:07:45.815Z,100806.19
2019-06-07T09:08:53.810Z,100814.81
2019-06-07T09:10:09.415Z,100815.45
2019-06-07T09:11:11.721Z,100807.76
2019-06-07T09:12:19.686Z,100804.48
2019-06-07T09:13:26.414Z,100804.64
2019-06-07T09:14:34.137Z,100811.00
2019-06-07T09:15:40.986Z,100809.19
2019-06-07T09:16:48.981Z,100802.67
2019-06-07T09:18:34.990Z,100798.12
2019-06-07T09:19:10.669Z,100793.52
2019-06-07T09:20:35.923Z,100796.77
2019-06-07T09:21:25.215Z,100791.42
2019-06-07T09:22:31.942Z,100791.42
2019-06-07T09:23:39.529Z,100797.02
2019-06-07T09:24:46.674Z,100790.44
2019-06-07T09:26:00.863Z,100772.59
2019-06-07T09:27:07.180Z,100779.58
2019-06-07T09:28:18.783Z,100769.98
2019-06-07T09:29:21.743Z,100768.20
2019-06-07T09:30:43.563Z,100773.12
2019-06-07T09:31:53.377Z,100763.72
2019-06-07T09:33:01.917Z,100757.66
2019-06-07T09:34:14.359Z,100754.03
2019-06-07T09:35:18.876Z,100750.52
2019-06-07T09:36:25.611Z,100740.50
2019-06-07T09:38:04.456Z,100741.33
2019-06-07T09:38:43.301Z,100751.58
2019-06-07T09:39:51.467Z,100750.23
2019-06-07T09:41:00.434Z,100751.79
2019-06-07T09:42:11.942Z,100747.50
2019-06-07T09:44:00.210Z,100757.53
2019-06-07T09:44:26.807Z,100755.18
2019-06-07T09:45:33.712Z,100747.98
2019-06-07T09:46:41.421Z,100753.53
2019-06-07T09:47:48.874Z,100748.81
2019-06-07T09:49:22.309Z,100746.59
2019-06-07T09:50:09.187Z,100753.10
2019-06-07T09:51:19.905Z,100747.45
2019-06-07T09:52:23.532Z,100750.83
2019-06-07T09:53:31.079Z,100743.30
2019-06-07T09:55:48.249Z,100739.97
2019-06-07T09:56:54.975Z,100750.70
2019-06-07T09:58:47.856Z,100738.47
2019-06-07T09:59:12.870Z,100734.86
2019-06-07T10:00:39.662Z,100740.27
2019-06-07T10:01:30.283Z,100729.36
2019-06-07T10:02:37.879Z,100721.00
2019-06-07T10:03:44.685Z,100726.88
2019-06-07T10:04:52.661Z,100733.39
2019-06-07T10:06:00.350Z,100728.44
2019-06-07T10:07:27.254Z,100726.41
2019-06-07T10:09:31.474Z,100717.14
2019-06-07T10:10:11.640Z,100715.30
2019-06-07T10:10:36.748Z,100708.56
2019-06-07T10:11:45.269Z,100706.88
2019-06-07T10:12:52.108Z,100701.19
2019-06-07T10:14:00.297Z,100695.63
2019-06-07T10:15:09.018Z,100685.92
2019-06-07T10:16:16.696Z,100676.39
2019-06-07T10:17:23.738Z,100679.35
2019-06-07T10:18:31.287Z,100688.86
2019-06-07T10:19:38.133Z,100666.63
2019-06-07T10:20:46.148Z,100687.38
2019-06-07T10:21:53.270Z,100674.92
2019-06-07T10:23:01.622Z,100678.49
2019-06-07T10:24:09.727Z,100676.02
2019-06-07T10:25:17.793Z,100683.58
2019-06-07T10:26:24.551Z,100677.30
2019-06-07T10:27:32.072Z,100678.08
2019-06-07T10:28:39.442Z,100677.48
2019-06-07T10:29:47.012Z,100666.20
2019-06-07T10:30:53.806Z,100659.94
2019-06-07T10:32:02.268Z,100653.87
2019-06-07T10:33:10.377Z,100652.37
2019-06-07T10:34:18.149Z,100652.41
2019-06-07T10:35:25.252Z,100646.64
2019-06-07T10:36:33.180Z,100654.43
2019-06-07T10:37:40.374Z,100654.00
2019-06-07T10:38:48.057Z,100646.98
2019-06-07T10:39:54.803Z,100653.11
2019-06-07T10:41:02.853Z,100650.91
2019-06-07T10:42:11.569Z,100643.45
2019-06-07T10:43:19.307Z,100638.64
2019-06-07T10:44:26.077Z,100667.97
2019-06-07T10:45:35.013Z,100653.84
2019-06-07T10:46:42.196Z,100669.27
2019-06-07T10:47:50.184Z,100649.80
2019-06-07T10:48:56.983Z,100663.08
2019-06-07T10:50:05.959Z,100654.05
2019-06-07T10:51:14.798Z,100653.50
2019-06-07T10:52:22.192Z,100657.89
2019-06-07T10:53:29.036Z,100652.98
2019-06-07T10:54:37.111Z,100658.34
2019-06-07T10:55:44.271Z,100643.17
2019-06-07T10:56:52.461Z,100652.75
2019-06-07T10:57:59.183Z,100653.13
2019-06-07T10:59:07.088Z,100658.53
2019-06-07T11:00:14.692Z,100645.67
2019-06-07T11:01:22.580Z,100652.73
2019-06-07T11:02:29.718Z,100652.06
2019-06-07T11:03:38.227Z,100648.42
2019-06-07T11:04:44.959Z,100646.94
2019-06-07T11:05:52.645Z,100648.75
2019-06-07T11:06:59.379Z,100652.08
2019-06-07T11:08:08.010Z,100640.30
2019-06-07T11:09:15.335Z,100649.23
2019-06-07T11:10:22.877Z,100643.80
2019-06-07T11:11:30.014Z,100644.76
2019-06-07T11:12:37.692Z,100639.67
2019-06-07T11:13:44.909Z,100640.71
2019-06-07T11:14:52.770Z,100629.93
2019-06-07T11:15:59.583Z,100632.48
2019-06-07T11:17:07.466Z,100627.84
2019-06-07T11:18:14.932Z,100626.43
2019-06-07T11:19:22.712Z,100635.84
2019-06-07T11:20:29.432Z,100632.05
2019-06-07T11:21:37.403Z,100628.83
2019-06-07T11:22:44.879Z,100624.10
2019-06-07T11:23:52.429Z,100626.35
2019-06-07T11:24:59.523Z,100626.51
2019-06-07T11:26:08.324Z,100619.64
2019-06-07T11:27:16.315Z,100626.77
2019-06-07T11:28:24.153Z,100619.30
2019-06-07T11:29:31.256Z,100613.59
2019-06-07T11:30:38.847Z,100608.25
2019-06-07T11:31:47.503Z,100601.83
2019-06-07T11:32:54.873Z,100592.57
2019-06-07T11:34:01.605Z,100602.66
2019-06-07T11:35:11.920Z,100600.83
2019-06-07T11:36:19.172Z,100586.37
2019-06-07T11:37:26.750Z,100592.42
2019-06-07T11:38:34.047Z,100596.60
2019-06-07T11:39:41.956Z,100585.89
2019-06-07T11:40:49.202Z,100576.11
2019-06-07T11:41:57.114Z,100576.82
2019-06-07T11:43:03.960Z,100570.44
2019-06-07T11:44:13.006Z,100564.02
2019-06-07T11:45:20.055Z,100559.01
2019-06-07T11:46:27.592Z,100542.03
2019-06-07T11:47:34.690Z,100540.61
2019-06-07T11:48:42.331Z,100553.48
2019-06-07T11:49:50.154Z,100548.37
2019-06-07T11:50:57.656Z,100546.94
2019-06-07T11:52:05.134Z,100547.65
2019-06-07T11:53:12.849Z,100551.82
2019-06-07T11:54:20.604Z,100545.52
2019-06-07T11:55:28.488Z,100542.20
2019-06-07T11:56:35.699Z,100536.38
2019-06-07T11:57:43.575Z,100537.90
2019-06-07T11:58:50.638Z,100531.02
2019-06-07T11:59:58.498Z,100525.17
2019-06-07T12:01:07.447Z,100529.45
2019-06-07T12:02:17.449Z,100529.91
2019-06-07T12:03:24.445Z,100530.61
2019-06-07T12:04:34.771Z,100527.65
2019-06-07T12:05:40.941Z,100520.52
2019-06-07T12:06:48.805Z,100520.77
2019-06-07T12:07:57.162Z,100523.26
2019-06-07T12:09:06.498Z,100528.22
2019-06-07T12:10:16.570Z,100512.30
2019-06-07T12:11:23.701Z,100510.05
2019-06-07T12:12:30.964Z,100510.61
2019-06-07T12:13:38.570Z,100519.39
2019-06-07T12:14:47.806Z,100508.49
2019-06-07T12:15:55.830Z,100499.19
2019-06-07T12:17:02.547Z,100503.12
2019-06-07T12:18:11.242Z,100495.53
2019-06-07T12:19:19.677Z,100489.59
2019-06-07T12:20:27.743Z,100487.80
2019-06-07T12:21:34.880Z,100491.13
2019-06-07T12:22:42.518Z,100487.44
2019-06-07T12:23:49.242Z,100477.22
2019-06-07T12:24:56.743Z,100494.42
2019-06-07T12:26:03.479Z,100483.48
2019-06-07T12:27:12.658Z,100477.19
2019-06-07T12:28:20.916Z,100467.28
2019-06-07T12:29:28.638Z,100469.88
2019-06-07T12:30:35.712Z,100472.00
2019-06-07T12:31:43.915Z,100459.25
2019-06-07T12:32:51.174Z,100464.66
2019-06-07T12:33:59.101Z,100470.19
2019-06-07T12:35:06.565Z,100471.66
2019-06-07T12:36:15.794Z,100474.52
2019-06-07T12:37:39.254Z,100469.38
2019-06-07T12:38:32.420Z,100466.58
2019-06-07T12:39:39.614Z,100470.23
2019-06-07T12:40:57.241Z,100475.10
2019-06-07T12:41:55.915Z,100460.62
2019-06-07T12:43:03.606Z,100466.06
2019-06-07T12:44:10.415Z,100465.30
2019-06-07T12:45:40.118Z,100480.34
2019-06-07T12:46:28.705Z,100458.97
2019-06-07T12:47:36.307Z,100471.14
2019-06-07T12:48:43.145Z,100467.13
2019-06-07T12:49:50.672Z,100485.17
2019-06-07T12:50:57.449Z,100478.36
2019-06-07T12:52:05.026Z,100478.30
2019-06-07T12:53:11.865Z,100473.03
2019-06-07T12:54:19.707Z,100483.96
2019-06-07T12:55:26.586Z,100482.55
2019-06-07T12:56:34.089Z,100473.56
2019-06-07T12:57:41.299Z,100469.70
2019-06-07T12:58:48.807Z,100463.72
2019-06-07T12:59:55.556Z,100464.83
2019-06-07T13:01:03.059Z,100468.08
2019-06-07T13:02:09.939Z,100467.16
2019-06-07T13:03:18.402Z,100469.66
2019-06-07T13:04:27.687Z,100475.36
2019-06-07T13:05:35.382Z,100462.92